sensor_id;sensor_type;location;lat;lon;timestamp;P1;durP1;ratioP1;P2;durP2;ratioP2
64649;SDS011;51061;45.258;38.112;2022-07-21T00:01:49;13.13;;;4.97;;
64649;SDS011;51061;45.258;38.112;2022-07-21T00:04:16;18.63;;;5.15;;
64649;SDS011;51061;45.258;38.112;2022-07-21T00:06:44;15.73;;;4.55;;
64649;SDS011;51061;45.258;38.112;2022-07-21T00:09:11;15.70;;;4.85;;
64649;SDS011;51061;45.258;38.112;2022-07-21T00:11:38;15.50;;;5.60;;
64649;SDS011;51061;45.258;38.112;2022-07-21T00:14:06;18.52;;;5.43;;
64649;SDS011;51061;45.258;38.112;2022-07-21T00:16:33;18.40;;;5.13;;
64649;SDS011;51061;45.258;38.112;2022-07-21T00:19:00;18.48;;;5.93;;
64649;SDS011;51061;45.258;38.112;2022-07-21T00:21:27;15.45;;;5.03;;
64649;SDS011;51061;45.258;38.112;2022-07-21T00:23:53;22.25;;;5.55;;
64649;SDS011;51061;45.258;38.112;2022-07-21T00:26:20;13.70;;;4.90;;
64649;SDS011;51061;45.258;38.112;2022-07-21T00:28:47;14.75;;;5.40;;
64649;SDS011;51061;45.258;38.112;2022-07-21T00:31:14;20.23;;;4.78;;
64649;SDS011;51061;45.258;38.112;2022-07-21T00:33:40;10.32;;;4.60;;
64649;SDS011;51061;45.258;38.112;2022-07-21T00:36:07;14.38;;;5.03;;
64649;SDS011;51061;45.258;38.112;2022-07-21T00:38:33;19.63;;;5.10;;
64649;SDS011;51061;45.258;38.112;2022-07-21T00:41:00;23.70;;;6.00;;
64649;SDS011;51061;45.258;38.112;2022-07-21T00:43:26;11.88;;;4.60;;
64649;SDS011;51061;45.258;38.112;2022-07-21T00:45:53;9.27;;;4.90;;
64649;SDS011;51061;45.258;38.112;2022-07-21T00:48:20;15.85;;;5.47;;
64649;SDS011;51061;45.258;38.112;2022-07-21T00:50:47;16.35;;;5.75;;
64649;SDS011;51061;45.258;38.112;2022-07-21T00:53:14;15.73;;;5.45;;
64649;SDS011;51061;45.258;38.112;2022-07-21T00:55:44;15.45;;;5.70;;
64649;SDS011;51061;45.258;38.112;2022-07-21T00:58:12;27.15;;;6.93;;
64649;SDS011;51061;45.258;38.112;2022-07-21T01:00:39;23.25;;;7.13;;
64649;SDS011;51061;45.258;38.112;2022-07-21T01:03:06;19.95;;;7.18;;
64649;SDS011;51061;45.258;38.112;2022-07-21T01:05:32;23.80;;;6.85;;
64649;SDS011;51061;45.258;38.112;2022-07-21T01:07:59;26.00;;;8.23;;
64649;SDS011;51061;45.258;38.112;2022-07-21T01:10:28;26.10;;;8.00;;
64649;SDS011;51061;45.258;38.112;2022-07-21T01:12:55;24.20;;;7.95;;
64649;SDS011;51061;45.258;38.112;2022-07-21T01:15:21;23.52;;;8.13;;
64649;SDS011;51061;45.258;38.112;2022-07-21T01:17:48;18.20;;;7.07;;
64649;SDS011;51061;45.258;38.112;2022-07-21T01:20:16;30.92;;;8.20;;
64649;SDS011;51061;45.258;38.112;2022-07-21T01:22:47;21.63;;;7.13;;
64649;SDS011;51061;45.258;38.112;2022-07-21T01:25:16;25.13;;;8.57;;
64649;SDS011;51061;45.258;38.112;2022-07-21T01:27:43;26.38;;;9.60;;
64649;SDS011;51061;45.258;38.112;2022-07-21T01:30:10;23.80;;;9.43;;
64649;SDS011;51061;45.258;38.112;2022-07-21T01:32:38;28.98;;;9.43;;
64649;SDS011;51061;45.258;38.112;2022-07-21T01:35:06;33.13;;;9.20;;
64649;SDS011;51061;45.258;38.112;2022-07-21T01:37:35;21.25;;;8.23;;
64649;SDS011;51061;45.258;38.112;2022-07-21T01:40:03;22.05;;;8.15;;
64649;SDS011;51061;45.258;38.112;2022-07-21T01:42:48;19.20;;;8.30;;
64649;SDS011;51061;45.258;38.112;2022-07-21T01:47:40;16.90;;;6.55;;
64649;SDS011;51061;45.258;38.112;2022-07-21T01:50:07;25.65;;;7.57;;
64649;SDS011;51061;45.258;38.112;2022-07-21T01:52:33;17.70;;;7.55;;
64649;SDS011;51061;45.258;38.112;2022-07-21T01:57:25;20.67;;;7.20;;
64649;SDS011;51061;45.258;38.112;2022-07-21T01:59:51;20.30;;;6.95;;
64649;SDS011;51061;45.258;38.112;2022-07-21T02:04:49;16.88;;;6.57;;
64649;SDS011;51061;45.258;38.112;2022-07-21T02:07:15;13.70;;;6.03;;
64649;SDS011;51061;45.258;38.112;2022-07-21T02:09:42;17.67;;;5.78;;
64649;SDS011;51061;45.258;38.112;2022-07-21T02:12:09;11.65;;;5.05;;
64649;SDS011;51061;45.258;38.112;2022-07-21T02:14:35;16.35;;;5.70;;
64649;SDS011;51061;45.258;38.112;2022-07-21T02:17:02;22.48;;;5.93;;
64649;SDS011;51061;45.258;38.112;2022-07-21T02:21:54;16.23;;;6.10;;
64649;SDS011;51061;45.258;38.112;2022-07-21T02:24:20;13.93;;;6.00;;
64649;SDS011;51061;45.258;38.112;2022-07-21T02:29:13;21.45;;;6.53;;
64649;SDS011;51061;45.258;38.112;2022-07-21T02:34:05;22.88;;;6.50;;
64649;SDS011;51061;45.258;38.112;2022-07-21T02:36:32;20.25;;;5.97;;
64649;SDS011;51061;45.258;38.112;2022-07-21T02:38:58;25.05;;;5.63;;
64649;SDS011;51061;45.258;38.112;2022-07-21T02:43:50;19.00;;;7.00;;
64649;SDS011;51061;45.258;38.112;2022-07-21T02:48:42;15.30;;;5.22;;
64649;SDS011;51061;45.258;38.112;2022-07-21T02:51:08;14.93;;;6.07;;
64649;SDS011;51061;45.258;38.112;2022-07-21T02:53:35;17.38;;;6.00;;
64649;SDS011;51061;45.258;38.112;2022-07-21T02:56:01;16.63;;;5.25;;
64649;SDS011;51061;45.258;38.112;2022-07-21T02:58:27;13.13;;;5.28;;
64649;SDS011;51061;45.258;38.112;2022-07-21T03:00:55;19.13;;;5.75;;
64649;SDS011;51061;45.258;38.112;2022-07-21T03:03:27;16.10;;;5.72;;
64649;SDS011;51061;45.258;38.112;2022-07-21T03:05:55;15.25;;;5.43;;
64649;SDS011;51061;45.258;38.112;2022-07-21T03:08:26;15.23;;;5.68;;
64649;SDS011;51061;45.258;38.112;2022-07-21T03:10:55;18.45;;;5.75;;
64649;SDS011;51061;45.258;38.112;2022-07-21T03:13:21;14.60;;;4.93;;
64649;SDS011;51061;45.258;38.112;2022-07-21T03:15:47;12.70;;;5.22;;
64649;SDS011;51061;45.258;38.112;2022-07-21T03:18:14;16.98;;;5.85;;
64649;SDS011;51061;45.258;38.112;2022-07-21T03:20:43;16.27;;;5.80;;
64649;SDS011;51061;45.258;38.112;2022-07-21T03:23:10;15.85;;;5.53;;
64649;SDS011;51061;45.258;38.112;2022-07-21T03:25:36;12.45;;;5.45;;
64649;SDS011;51061;45.258;38.112;2022-07-21T03:28:02;15.82;;;5.43;;
64649;SDS011;51061;45.258;38.112;2022-07-21T03:30:29;19.13;;;5.72;;
64649;SDS011;51061;45.258;38.112;2022-07-21T03:32:56;33.20;;;10.10;;
64649;SDS011;51061;45.258;38.112;2022-07-21T03:35:23;17.85;;;5.75;;
64649;SDS011;51061;45.258;38.112;2022-07-21T03:37:50;18.13;;;5.60;;
64649;SDS011;51061;45.258;38.112;2022-07-21T03:40:18;24.50;;;5.85;;
64649;SDS011;51061;45.258;38.112;2022-07-21T03:42:49;20.33;;;5.63;;
64649;SDS011;51061;45.258;38.112;2022-07-21T03:45:19;20.55;;;5.90;;
64649;SDS011;51061;45.258;38.112;2022-07-21T03:47:46;19.20;;;7.03;;
64649;SDS011;51061;45.258;38.112;2022-07-21T03:50:12;21.13;;;6.20;;
64649;SDS011;51061;45.258;38.112;2022-07-21T03:52:39;19.85;;;6.40;;
64649;SDS011;51061;45.258;38.112;2022-07-21T03:55:06;24.67;;;6.65;;
64649;SDS011;51061;45.258;38.112;2022-07-21T03:57:50;18.75;;;6.00;;
64649;SDS011;51061;45.258;38.112;2022-07-21T04:00:19;21.85;;;6.88;;
64649;SDS011;51061;45.258;38.112;2022-07-21T04:02:48;21.92;;;7.72;;
64649;SDS011;51061;45.258;38.112;2022-07-21T04:05:15;31.27;;;6.47;;
64649;SDS011;51061;45.258;38.112;2022-07-21T04:07:43;20.50;;;6.13;;
64649;SDS011;51061;45.258;38.112;2022-07-21T04:10:11;22.83;;;7.80;;
64649;SDS011;51061;45.258;38.112;2022-07-21T04:12:39;22.63;;;6.43;;
64649;SDS011;51061;45.258;38.112;2022-07-21T04:15:06;19.50;;;5.95;;
64649;SDS011;51061;45.258;38.112;2022-07-21T04:17:33;22.08;;;6.65;;
64649;SDS011;51061;45.258;38.112;2022-07-21T04:20:00;18.50;;;6.45;;
64649;SDS011;51061;45.258;38.112;2022-07-21T04:22:26;22.30;;;6.97;;
64649;SDS011;51061;45.258;38.112;2022-07-21T04:24:52;20.88;;;6.43;;
64649;SDS011;51061;45.258;38.112;2022-07-21T04:29:44;37.57;;;6.93;;
64649;SDS011;51061;45.258;38.112;2022-07-21T04:32:10;25.52;;;6.68;;
64649;SDS011;51061;45.258;38.112;2022-07-21T04:34:36;19.33;;;6.10;;
64649;SDS011;51061;45.258;38.112;2022-07-21T04:37:02;24.38;;;6.55;;
64649;SDS011;51061;45.258;38.112;2022-07-21T04:39:29;24.88;;;5.85;;
64649;SDS011;51061;45.258;38.112;2022-07-21T04:41:55;19.15;;;6.20;;
64649;SDS011;51061;45.258;38.112;2022-07-21T04:44:21;22.90;;;6.72;;
64649;SDS011;51061;45.258;38.112;2022-07-21T04:46:47;24.67;;;6.88;;
64649;SDS011;51061;45.258;38.112;2022-07-21T04:49:13;20.80;;;6.82;;
64649;SDS011;51061;45.258;38.112;2022-07-21T04:51:39;26.55;;;6.88;;
64649;SDS011;51061;45.258;38.112;2022-07-21T04:54:06;24.70;;;6.25;;
64649;SDS011;51061;45.258;38.112;2022-07-21T04:56:33;20.23;;;6.15;;
64649;SDS011;51061;45.258;38.112;2022-07-21T04:59:00;18.63;;;5.68;;
64649;SDS011;51061;45.258;38.112;2022-07-21T05:01:26;27.35;;;6.45;;
64649;SDS011;51061;45.258;38.112;2022-07-21T05:03:53;20.30;;;5.40;;
64649;SDS011;51061;45.258;38.112;2022-07-21T05:06:19;22.15;;;5.03;;
64649;SDS011;51061;45.258;38.112;2022-07-21T05:08:45;12.85;;;5.20;;
64649;SDS011;51061;45.258;38.112;2022-07-21T05:11:13;17.75;;;5.10;;
64649;SDS011;51061;45.258;38.112;2022-07-21T05:13:39;24.33;;;4.70;;
64649;SDS011;51061;45.258;38.112;2022-07-21T05:16:05;19.55;;;4.82;;
64649;SDS011;51061;45.258;38.112;2022-07-21T05:18:32;16.38;;;4.78;;
64649;SDS011;51061;45.258;38.112;2022-07-21T05:20:58;14.40;;;4.90;;
64649;SDS011;51061;45.258;38.112;2022-07-21T05:23:24;13.80;;;4.35;;
64649;SDS011;51061;45.258;38.112;2022-07-21T05:25:50;14.13;;;4.63;;
64649;SDS011;51061;45.258;38.112;2022-07-21T05:28:16;12.57;;;4.10;;
64649;SDS011;51061;45.258;38.112;2022-07-21T05:30:42;15.25;;;4.60;;
64649;SDS011;51061;45.258;38.112;2022-07-21T05:33:08;10.05;;;4.13;;
64649;SDS011;51061;45.258;38.112;2022-07-21T05:35:34;13.65;;;4.10;;
64649;SDS011;51061;45.258;38.112;2022-07-21T05:38:01;12.98;;;3.53;;
64649;SDS011;51061;45.258;38.112;2022-07-21T05:40:28;15.30;;;3.22;;
64649;SDS011;51061;45.258;38.112;2022-07-21T05:42:54;10.85;;;2.40;;
64649;SDS011;51061;45.258;38.112;2022-07-21T05:45:21;9.88;;;2.25;;
64649;SDS011;51061;45.258;38.112;2022-07-21T05:47:47;6.55;;;2.33;;
64649;SDS011;51061;45.258;38.112;2022-07-21T05:50:13;9.45;;;2.80;;
64649;SDS011;51061;45.258;38.112;2022-07-21T05:52:39;10.23;;;2.38;;
64649;SDS011;51061;45.258;38.112;2022-07-21T05:55:05;6.72;;;2.40;;
64649;SDS011;51061;45.258;38.112;2022-07-21T05:57:32;12.60;;;2.53;;
64649;SDS011;51061;45.258;38.112;2022-07-21T05:59:59;9.35;;;2.45;;
64649;SDS011;51061;45.258;38.112;2022-07-21T06:02:26;39.00;;;3.53;;
64649;SDS011;51061;45.258;38.112;2022-07-21T06:04:56;14.75;;;2.60;;
64649;SDS011;51061;45.258;38.112;2022-07-21T06:07:22;14.90;;;2.92;;
64649;SDS011;51061;45.258;38.112;2022-07-21T06:09:48;15.35;;;3.60;;
64649;SDS011;51061;45.258;38.112;2022-07-21T06:12:14;11.77;;;3.47;;
64649;SDS011;51061;45.258;38.112;2022-07-21T06:14:41;11.15;;;2.10;;
64649;SDS011;51061;45.258;38.112;2022-07-21T06:17:07;7.45;;;2.53;;
64649;SDS011;51061;45.258;38.112;2022-07-21T06:19:33;31.38;;;3.85;;
64649;SDS011;51061;45.258;38.112;2022-07-21T06:21:59;17.38;;;3.95;;
64649;SDS011;51061;45.258;38.112;2022-07-21T06:24:25;9.77;;;2.22;;
64649;SDS011;51061;45.258;38.112;2022-07-21T06:26:52;13.38;;;2.55;;
64649;SDS011;51061;45.258;38.112;2022-07-21T06:29:22;10.95;;;2.20;;
64649;SDS011;51061;45.258;38.112;2022-07-21T06:31:49;10.57;;;2.63;;
64649;SDS011;51061;45.258;38.112;2022-07-21T06:34:15;12.55;;;2.17;;
64649;SDS011;51061;45.258;38.112;2022-07-21T06:36:41;7.43;;;2.70;;
64649;SDS011;51061;45.258;38.112;2022-07-21T06:39:08;6.47;;;2.22;;
64649;SDS011;51061;45.258;38.112;2022-07-21T06:41:37;16.48;;;2.63;;
64649;SDS011;51061;45.258;38.112;2022-07-21T06:44:11;19.60;;;4.85;;
64649;SDS011;51061;45.258;38.112;2022-07-21T06:46:37;28.83;;;4.05;;
64649;SDS011;51061;45.258;38.112;2022-07-21T06:49:03;13.85;;;3.30;;
64649;SDS011;51061;45.258;38.112;2022-07-21T06:51:31;14.23;;;3.40;;
64649;SDS011;51061;45.258;38.112;2022-07-21T06:53:57;16.98;;;3.25;;
64649;SDS011;51061;45.258;38.112;2022-07-21T06:56:23;14.77;;;3.42;;
64649;SDS011;51061;45.258;38.112;2022-07-21T06:58:49;7.68;;;2.95;;
64649;SDS011;51061;45.258;38.112;2022-07-21T07:01:15;13.85;;;3.53;;
64649;SDS011;51061;45.258;38.112;2022-07-21T07:03:43;12.88;;;3.67;;
64649;SDS011;51061;45.258;38.112;2022-07-21T07:06:11;12.20;;;3.95;;
64649;SDS011;51061;45.258;38.112;2022-07-21T07:08:37;15.82;;;4.00;;
64649;SDS011;51061;45.258;38.112;2022-07-21T07:11:04;15.02;;;3.53;;
64649;SDS011;51061;45.258;38.112;2022-07-21T07:13:31;8.65;;;3.55;;
64649;SDS011;51061;45.258;38.112;2022-07-21T07:15:57;17.35;;;4.40;;
64649;SDS011;51061;45.258;38.112;2022-07-21T07:18:23;11.70;;;4.43;;
64649;SDS011;51061;45.258;38.112;2022-07-21T07:20:50;12.07;;;3.92;;
64649;SDS011;51061;45.258;38.112;2022-07-21T07:23:17;15.60;;;4.65;;
64649;SDS011;51061;45.258;38.112;2022-07-21T07:25:43;23.48;;;4.30;;
64649;SDS011;51061;45.258;38.112;2022-07-21T07:28:09;13.05;;;4.45;;
64649;SDS011;51061;45.258;38.112;2022-07-21T07:30:35;13.88;;;4.10;;
64649;SDS011;51061;45.258;38.112;2022-07-21T07:33:01;15.35;;;4.80;;
64649;SDS011;51061;45.258;38.112;2022-07-21T07:35:28;17.70;;;4.72;;
64649;SDS011;51061;45.258;38.112;2022-07-21T07:37:54;13.80;;;4.35;;
64649;SDS011;51061;45.258;38.112;2022-07-21T07:40:21;15.32;;;4.70;;
64649;SDS011;51061;45.258;38.112;2022-07-21T07:42:48;21.30;;;4.45;;
64649;SDS011;51061;45.258;38.112;2022-07-21T07:45:14;12.13;;;3.78;;
64649;SDS011;51061;45.258;38.112;2022-07-21T07:47:41;17.58;;;4.82;;
64649;SDS011;51061;45.258;38.112;2022-07-21T07:50:08;20.83;;;4.78;;
64649;SDS011;51061;45.258;38.112;2022-07-21T07:52:37;14.50;;;4.57;;
64649;SDS011;51061;45.258;38.112;2022-07-21T07:55:04;12.10;;;4.72;;
64649;SDS011;51061;45.258;38.112;2022-07-21T07:57:37;18.23;;;5.10;;
64649;SDS011;51061;45.258;38.112;2022-07-21T08:00:05;11.35;;;4.97;;
64649;SDS011;51061;45.258;38.112;2022-07-21T08:02:37;14.13;;;4.65;;
64649;SDS011;51061;45.258;38.112;2022-07-21T08:05:04;24.73;;;6.13;;
64649;SDS011;51061;45.258;38.112;2022-07-21T08:07:30;18.52;;;4.93;;
64649;SDS011;51061;45.258;38.112;2022-07-21T08:09:56;15.77;;;4.80;;
64649;SDS011;51061;45.258;38.112;2022-07-21T08:12:22;15.68;;;5.03;;
64649;SDS011;51061;45.258;38.112;2022-07-21T08:14:48;17.60;;;5.07;;
64649;SDS011;51061;45.258;38.112;2022-07-21T08:17:15;12.70;;;5.00;;
64649;SDS011;51061;45.258;38.112;2022-07-21T08:19:42;19.02;;;5.50;;
64649;SDS011;51061;45.258;38.112;2022-07-21T08:22:08;29.83;;;5.82;;
64649;SDS011;51061;45.258;38.112;2022-07-21T08:24:35;19.52;;;6.07;;
64649;SDS011;51061;45.258;38.112;2022-07-21T08:27:01;20.88;;;4.80;;
64649;SDS011;51061;45.258;38.112;2022-07-21T08:29:27;15.57;;;4.68;;
64649;SDS011;51061;45.258;38.112;2022-07-21T08:31:53;17.42;;;5.57;;
64649;SDS011;51061;45.258;38.112;2022-07-21T08:34:19;20.20;;;4.97;;
64649;SDS011;51061;45.258;38.112;2022-07-21T08:36:45;16.23;;;5.72;;
64649;SDS011;51061;45.258;38.112;2022-07-21T08:39:12;17.23;;;5.47;;
64649;SDS011;51061;45.258;38.112;2022-07-21T08:41:38;15.25;;;5.32;;
64649;SDS011;51061;45.258;38.112;2022-07-21T08:44:05;12.27;;;5.28;;
64649;SDS011;51061;45.258;38.112;2022-07-21T08:46:33;16.73;;;5.10;;
64649;SDS011;51061;45.258;38.112;2022-07-21T08:49:01;16.35;;;5.10;;
64649;SDS011;51061;45.258;38.112;2022-07-21T08:51:32;21.15;;;5.72;;
64649;SDS011;51061;45.258;38.112;2022-07-21T08:54:00;14.20;;;5.22;;
64649;SDS011;51061;45.258;38.112;2022-07-21T08:56:26;12.07;;;4.43;;
64649;SDS011;51061;45.258;38.112;2022-07-21T08:58:53;15.18;;;4.30;;
64649;SDS011;51061;45.258;38.112;2022-07-21T09:01:19;13.30;;;4.57;;
64649;SDS011;51061;45.258;38.112;2022-07-21T09:03:51;10.90;;;4.60;;
64649;SDS011;51061;45.258;38.112;2022-07-21T09:06:18;12.18;;;4.13;;
64649;SDS011;51061;45.258;38.112;2022-07-21T09:08:45;14.77;;;4.22;;
64649;SDS011;51061;45.258;38.112;2022-07-21T09:11:20;11.32;;;4.22;;
64649;SDS011;51061;45.258;38.112;2022-07-21T09:14:06;10.88;;;3.85;;
64649;SDS011;51061;45.258;38.112;2022-07-21T09:16:40;7.85;;;3.97;;
64649;SDS011;51061;45.258;38.112;2022-07-21T09:19:19;9.57;;;3.83;;
64649;SDS011;51061;45.258;38.112;2022-07-21T09:21:50;14.68;;;4.45;;
64649;SDS011;51061;45.258;38.112;2022-07-21T09:27:01;9.27;;;3.92;;
64649;SDS011;51061;45.258;38.112;2022-07-21T09:32:19;15.70;;;4.15;;
64649;SDS011;51061;45.258;38.112;2022-07-21T09:34:52;12.07;;;4.07;;
64649;SDS011;51061;45.258;38.112;2022-07-21T09:37:20;10.95;;;4.60;;
64649;SDS011;51061;45.258;38.112;2022-07-21T09:39:56;19.60;;;5.70;;
64649;SDS011;51061;45.258;38.112;2022-07-21T09:42:28;15.48;;;4.57;;
64649;SDS011;51061;45.258;38.112;2022-07-21T09:44:57;11.73;;;4.32;;
64649;SDS011;51061;45.258;38.112;2022-07-21T09:47:26;13.60;;;4.50;;
64649;SDS011;51061;45.258;38.112;2022-07-21T09:49:55;25.65;;;4.85;;
64649;SDS011;51061;45.258;38.112;2022-07-21T09:55:07;15.32;;;4.45;;
64649;SDS011;51061;45.258;38.112;2022-07-21T09:57:37;16.17;;;3.85;;
64649;SDS011;51061;45.258;38.112;2022-07-21T10:00:04;14.48;;;3.97;;
64649;SDS011;51061;45.258;38.112;2022-07-21T10:02:33;13.18;;;4.22;;
64649;SDS011;51061;45.258;38.112;2022-07-21T10:05:19;18.35;;;4.00;;
64649;SDS011;51061;45.258;38.112;2022-07-21T10:07:47;16.27;;;5.10;;
64649;SDS011;51061;45.258;38.112;2022-07-21T10:10:14;12.25;;;5.80;;
64649;SDS011;51061;45.258;38.112;2022-07-21T10:12:41;11.77;;;4.57;;
64649;SDS011;51061;45.258;38.112;2022-07-21T10:15:08;15.75;;;5.30;;
64649;SDS011;51061;45.258;38.112;2022-07-21T10:17:34;13.57;;;4.95;;
64649;SDS011;51061;45.258;38.112;2022-07-21T10:25:15;10.98;;;4.78;;
64649;SDS011;51061;45.258;38.112;2022-07-21T10:30:38;16.33;;;5.75;;
64649;SDS011;51061;45.258;38.112;2022-07-21T10:33:05;27.13;;;6.82;;
64649;SDS011;51061;45.258;38.112;2022-07-21T10:35:31;25.42;;;6.30;;
64649;SDS011;51061;45.258;38.112;2022-07-21T10:37:58;14.43;;;5.40;;
64649;SDS011;51061;45.258;38.112;2022-07-21T10:45:40;19.48;;;5.93;;
64649;SDS011;51061;45.258;38.112;2022-07-21T10:48:38;18.80;;;6.32;;
64649;SDS011;51061;45.258;38.112;2022-07-21T10:51:03;22.33;;;5.90;;
64649;SDS011;51061;45.258;38.112;2022-07-21T10:53:32;19.35;;;5.90;;
64649;SDS011;51061;45.258;38.112;2022-07-21T10:55:59;21.45;;;6.55;;
64649;SDS011;51061;45.258;38.112;2022-07-21T10:58:29;15.38;;;5.45;;
64649;SDS011;51061;45.258;38.112;2022-07-21T11:03:41;21.33;;;6.97;;
64649;SDS011;51061;45.258;38.112;2022-07-21T11:06:09;12.75;;;6.15;;
64649;SDS011;51061;45.258;38.112;2022-07-21T11:08:44;14.82;;;5.00;;
64649;SDS011;51061;45.258;38.112;2022-07-21T11:11:19;16.10;;;5.30;;
64649;SDS011;51061;45.258;38.112;2022-07-21T11:14:06;15.43;;;5.20;;
64649;SDS011;51061;45.258;38.112;2022-07-21T11:21:55;15.75;;;5.20;;
64649;SDS011;51061;45.258;38.112;2022-07-21T11:24:24;25.52;;;5.32;;
64649;SDS011;51061;45.258;38.112;2022-07-21T11:26:55;11.75;;;4.63;;
64649;SDS011;51061;45.258;38.112;2022-07-21T11:29:23;18.10;;;5.00;;
64649;SDS011;51061;45.258;38.112;2022-07-21T11:31:49;13.70;;;4.85;;
64649;SDS011;51061;45.258;38.112;2022-07-21T11:34:16;12.80;;;5.07;;
64649;SDS011;51061;45.258;38.112;2022-07-21T11:36:42;12.00;;;4.65;;
64649;SDS011;51061;45.258;38.112;2022-07-21T11:39:10;14.00;;;5.00;;
64649;SDS011;51061;45.258;38.112;2022-07-21T11:41:38;14.95;;;4.47;;
64649;SDS011;51061;45.258;38.112;2022-07-21T11:44:06;28.83;;;5.22;;
64649;SDS011;51061;45.258;38.112;2022-07-21T11:49:17;13.63;;;4.82;;
64649;SDS011;51061;45.258;38.112;2022-07-21T11:51:54;54.90;;;7.15;;
64649;SDS011;51061;45.258;38.112;2022-07-21T11:55:05;10.00;;;4.10;;
64649;SDS011;51061;45.258;38.112;2022-07-21T11:57:15;10.50;;;4.03;;
64649;SDS011;51061;45.258;38.112;2022-07-21T11:59:42;13.77;;;3.83;;
64649;SDS011;51061;45.258;38.112;2022-07-21T12:07:16;7.25;;;3.13;;
64649;SDS011;51061;45.258;38.112;2022-07-21T12:09:43;14.40;;;3.22;;
64649;SDS011;51061;45.258;38.112;2022-07-21T12:12:11;85.05;;;6.65;;
64649;SDS011;51061;45.258;38.112;2022-07-21T12:17:37;9.88;;;2.50;;
64649;SDS011;51061;45.258;38.112;2022-07-21T12:20:06;9.85;;;2.60;;
64649;SDS011;51061;45.258;38.112;2022-07-21T12:22:36;9.27;;;2.47;;
64649;SDS011;51061;45.258;38.112;2022-07-21T12:25:04;7.82;;;2.53;;
64649;SDS011;51061;45.258;38.112;2022-07-21T12:27:36;7.38;;;2.53;;
64649;SDS011;51061;45.258;38.112;2022-07-21T12:30:06;9.25;;;2.47;;
64649;SDS011;51061;45.258;38.112;2022-07-21T12:32:37;11.75;;;2.42;;
64649;SDS011;51061;45.258;38.112;2022-07-21T12:35:05;11.20;;;2.63;;
64649;SDS011;51061;45.258;38.112;2022-07-21T12:40:21;21.60;;;3.35;;
64649;SDS011;51061;45.258;38.112;2022-07-21T12:42:48;14.10;;;4.75;;
64649;SDS011;51061;45.258;38.112;2022-07-21T12:45:15;15.70;;;3.45;;
64649;SDS011;51061;45.258;38.112;2022-07-21T12:47:43;11.75;;;4.40;;
64649;SDS011;51061;45.258;38.112;2022-07-21T12:50:29;16.40;;;5.03;;
64649;SDS011;51061;45.258;38.112;2022-07-21T12:52:55;8.30;;;2.90;;
64649;SDS011;51061;45.258;38.112;2022-07-21T12:55:21;10.20;;;2.85;;
64649;SDS011;51061;45.258;38.112;2022-07-21T12:57:48;9.77;;;2.95;;
64649;SDS011;51061;45.258;38.112;2022-07-21T13:00:14;28.20;;;5.47;;
64649;SDS011;51061;45.258;38.112;2022-07-21T13:02:47;26.77;;;4.82;;
64649;SDS011;51061;45.258;38.112;2022-07-21T13:05:18;17.00;;;3.85;;
64649;SDS011;51061;45.258;38.112;2022-07-21T13:07:45;55.58;;;6.50;;
64649;SDS011;51061;45.258;38.112;2022-07-21T13:10:11;15.60;;;2.25;;
64649;SDS011;51061;45.258;38.112;2022-07-21T13:12:38;24.23;;;6.45;;
64649;SDS011;51061;45.258;38.112;2022-07-21T13:15:05;15.23;;;3.13;;
64649;SDS011;51061;45.258;38.112;2022-07-21T13:17:32;9.30;;;2.63;;
64649;SDS011;51061;45.258;38.112;2022-07-21T13:19:58;8.82;;;2.55;;
64649;SDS011;51061;45.258;38.112;2022-07-21T13:22:24;6.75;;;2.15;;
64649;SDS011;51061;45.258;38.112;2022-07-21T13:24:50;15.00;;;2.30;;
64649;SDS011;51061;45.258;38.112;2022-07-21T13:27:16;11.80;;;2.17;;
64649;SDS011;51061;45.258;38.112;2022-07-21T13:29:43;12.00;;;2.00;;
64649;SDS011;51061;45.258;38.112;2022-07-21T13:32:09;8.25;;;2.03;;
64649;SDS011;51061;45.258;38.112;2022-07-21T13:34:35;19.15;;;2.95;;
64649;SDS011;51061;45.258;38.112;2022-07-21T13:37:01;8.32;;;2.08;;
64649;SDS011;51061;45.258;38.112;2022-07-21T13:39:27;9.02;;;1.85;;
64649;SDS011;51061;45.258;38.112;2022-07-21T13:41:54;11.35;;;2.40;;
64649;SDS011;51061;45.258;38.112;2022-07-21T13:44:21;13.13;;;2.60;;
64649;SDS011;51061;45.258;38.112;2022-07-21T13:46:47;14.35;;;2.78;;
64649;SDS011;51061;45.258;38.112;2022-07-21T13:49:14;16.55;;;3.13;;
64649;SDS011;51061;45.258;38.112;2022-07-21T13:51:40;15.55;;;2.88;;
64649;SDS011;51061;45.258;38.112;2022-07-21T13:54:07;16.48;;;3.38;;
64649;SDS011;51061;45.258;38.112;2022-07-21T13:56:33;10.05;;;2.90;;
64649;SDS011;51061;45.258;38.112;2022-07-21T13:58:59;15.68;;;2.60;;
64649;SDS011;51061;45.258;38.112;2022-07-21T14:01:25;9.23;;;2.58;;
64649;SDS011;51061;45.258;38.112;2022-07-21T14:03:51;8.73;;;2.38;;
64649;SDS011;51061;45.258;38.112;2022-07-21T14:06:18;17.38;;;2.95;;
64649;SDS011;51061;45.258;38.112;2022-07-21T14:08:44;16.33;;;3.03;;
64649;SDS011;51061;45.258;38.112;2022-07-21T14:11:10;27.52;;;3.78;;
64649;SDS011;51061;45.258;38.112;2022-07-21T14:13:39;16.88;;;3.15;;
64649;SDS011;51061;45.258;38.112;2022-07-21T14:16:05;15.25;;;3.05;;
64649;SDS011;51061;45.258;38.112;2022-07-21T14:18:31;10.68;;;3.10;;
64649;SDS011;51061;45.258;38.112;2022-07-21T14:20:58;19.08;;;3.55;;
64649;SDS011;51061;45.258;38.112;2022-07-21T14:23:24;19.02;;;3.65;;
64649;SDS011;51061;45.258;38.112;2022-07-21T14:25:51;12.30;;;3.08;;
64649;SDS011;51061;45.258;38.112;2022-07-21T14:28:18;12.35;;;3.10;;
64649;SDS011;51061;45.258;38.112;2022-07-21T14:30:45;19.05;;;3.10;;
64649;SDS011;51061;45.258;38.112;2022-07-21T14:33:11;15.20;;;3.40;;
64649;SDS011;51061;45.258;38.112;2022-07-21T14:35:37;21.08;;;3.40;;
64649;SDS011;51061;45.258;38.112;2022-07-21T14:38:03;11.68;;;2.70;;
64649;SDS011;51061;45.258;38.112;2022-07-21T14:40:29;9.95;;;2.42;;
64649;SDS011;51061;45.258;38.112;2022-07-21T14:42:56;5.20;;;2.30;;
64649;SDS011;51061;45.258;38.112;2022-07-21T14:45:23;5.68;;;2.08;;
64649;SDS011;51061;45.258;38.112;2022-07-21T14:47:53;9.43;;;2.05;;
64649;SDS011;51061;45.258;38.112;2022-07-21T14:50:22;22.02;;;3.80;;
64649;SDS011;51061;45.258;38.112;2022-07-21T14:52:50;22.35;;;3.65;;
64649;SDS011;51061;45.258;38.112;2022-07-21T14:55:17;11.75;;;2.30;;
64649;SDS011;51061;45.258;38.112;2022-07-21T14:57:44;5.47;;;2.05;;
64649;SDS011;51061;45.258;38.112;2022-07-21T15:00:11;5.90;;;2.30;;
64649;SDS011;51061;45.258;38.112;2022-07-21T15:02:37;17.08;;;3.15;;
64649;SDS011;51061;45.258;38.112;2022-07-21T15:05:04;16.80;;;2.53;;
64649;SDS011;51061;45.258;38.112;2022-07-21T15:07:30;25.20;;;2.70;;
64649;SDS011;51061;45.258;38.112;2022-07-21T15:09:56;29.60;;;4.03;;
64649;SDS011;51061;45.258;38.112;2022-07-21T15:12:23;7.13;;;2.10;;
64649;SDS011;51061;45.258;38.112;2022-07-21T15:14:50;9.98;;;2.45;;
64649;SDS011;51061;45.258;38.112;2022-07-21T15:17:16;13.35;;;2.13;;
64649;SDS011;51061;45.258;38.112;2022-07-21T15:19:43;8.57;;;2.50;;
64649;SDS011;51061;45.258;38.112;2022-07-21T15:22:09;8.52;;;2.30;;
64649;SDS011;51061;45.258;38.112;2022-07-21T15:24:36;12.65;;;2.22;;
64649;SDS011;51061;45.258;38.112;2022-07-21T15:27:02;6.32;;;2.05;;
64649;SDS011;51061;45.258;38.112;2022-07-21T15:29:28;11.52;;;2.60;;
64649;SDS011;51061;45.258;38.112;2022-07-21T15:31:54;20.20;;;3.92;;